Buoy 62554

sailwx.info

Track history (hours):
 
Tides and Currents Weather Stations Pressure Air Temp Water Temp Dewpoint Dewpoint Depression Visibility Wind Speed Wind Dir Waves Ship Positions

Drifting buoy 62554

Last reported at 2017-Dec-17 19:00 UTC. Time now 2017-Dec-17 19:50 UTC.
Position N 36°27' W 020°18'.

Barometer 1031.4 mb
Water temperature 19.3 ° C

Date/timePositionNaut miles runAvg speedWind from/ knotsBaromVisibWave heightAir tempDewpointWater temp
2017-Dec-17 19:00N 36°27' W 020°18'0 0.5 1031.4 19.3
2017-Dec-17 18:00N 36°27' W 020°17'1 1.0 1031.0 19.3
2017-Dec-17 17:00N 36°27' W 020°16'0 0.5 1030.8 19.4
2017-Dec-17 16:00N 36°27' W 020°16'1 0.8 1030.8 19.3
2017-Dec-17 15:00N 36°28' W 020°15'0 0.5 1030.7 19.4
2017-Dec-17 14:00N 36°28' W 020°14'0 0.5 1031.2 19.4
2017-Dec-17 13:00N 36°28' W 020°14'0 0.5 1032.3 19.3
2017-Dec-17 12:00N 36°28' W 020°13'0 0.0 1033.0 19.4
2017-Dec-17 11:00N 36°28' W 020°13'0 0.5 1032.8 19.3
2017-Dec-17 10:00N 36°28' W 020°13'1 0.8 1032.2 19.4
2017-Dec-17 09:00N 36°27' W 020°12'1 1.0 1031.6 19.3
2017-Dec-17 08:00N 36°27' W 020°11'0 0.5 1031.1 19.4
2017-Dec-17 07:00N 36°27' W 020°10'1 1.0 1030.4 19.2
2017-Dec-17 06:00N 36°27' W 020°09'1 0.8 1029.9 19.2
2017-Dec-17 05:00N 36°28' W 020°08'1 1.0 1029.7 19.2
2017-Dec-17 04:00N 36°28' W 020°07'0 0.5 1030.0 19.2
2017-Dec-17 03:00N 36°28' W 020°07'0 0.5 1030.0 19.2
2017-Dec-17 02:00N 36°28' W 020°06'1 0.8 1030.3 19.2
2017-Dec-17 01:00N 36°28' W 020°05'0 0.5 1030.6 19.2
2017-Dec-17 00:00N 36°28' W 020°05'0 0.5 1030.6 19.2
2017-Dec-16 23:00N 36°28' W 020°04'0 0.5 1030.3 19.2
2017-Dec-16 22:00N 36°28' W 020°04'0 0.5 1030.3 19.2
2017-Dec-16 21:00N 36°28' W 020°03'1 1.0 1029.9 19.2
2017-Dec-16 20:00N 36°28' W 020°02'1 0.8 1029.5 19.1
2017-Dec-16 19:00N 36°29' W 020°01'0 0.5 1028.6 19.1
2017-Dec-16 18:00N 36°29' W 020°01'1 0.8 1028.0 19.1
2017-Dec-16 17:00N 36°29' W 020°00'1 0.8 1027.6 19.1
2017-Dec-16 16:00N 36°30' W 019°59'0 0.5 1027.1 19.1
2017-Dec-16 15:00N 36°30' W 019°59'1 0.8 1026.8 19.2
2017-Dec-16 14:00N 36°31' W 019°58'0 0.0 1027.1 19.2
2017-Dec-16 13:00N 36°31' W 019°58'0 0.5 1027.7 19.3
2017-Dec-16 12:00N 36°31' W 019°58'0 0.5 1028.1 19.4
2017-Dec-16 11:00N 36°31' W 019°57'0 0.5 1027.8 19.4
2017-Dec-16 10:00N 36°31' W 019°56'1 1.1 1027.3 19.3
2017-Dec-16 09:00N 36°31' W 019°55'0 0.5 1026.6 19.4
2017-Dec-16 08:00N 36°31' W 019°55'1 1.1 1026.1 19.2
2017-Dec-16 07:00N 36°32' W 019°53'1 1.0 1025.8 19.3
2017-Dec-16 06:00N 36°32' W 019°52'1 1.1 1025.3 19.3
2017-Dec-16 05:00N 36°32' W 019°51'1 0.8 1025.4 19.3
2017-Dec-16 04:00N 36°33' W 019°50'2 1.5 1025.7 19.2
2017-Dec-16 03:00N 36°34' W 019°49'1 0.8 1025.6 19.2
2017-Dec-16 02:00N 36°35' W 019°49'0 0.5 1025.7 19.4
2017-Dec-16 01:00N 36°35' W 019°48'1 0.6 1026.2 19.4
2017-Dec-16 00:00N 36°35' W 019°48'1 0.8 1026.6 19.4
2017-Dec-15 23:00N 36°36' W 019°47'1 0.8 1026.3 19.4
2017-Dec-15 22:00N 36°37' W 019°47'0 0.0 1026.4 19.5
2017-Dec-15 21:00N 36°37' W 019°47'1 0.8 1026.4 19.4
2017-Dec-15 20:00N 36°37' W 019°46'1 0.8 1026.2 19.4
2017-Dec-15 19:00N 36°38' W 019°46'1 1.1 1026.1 19.4
2017-Dec-15 18:00N 36°38' W 019°44'0 0.5 1025.8 19.4
2017-Dec-15 17:00N 36°38' W 019°44'1 1.1 1025.7 19.5
2017-Dec-15 16:00N 36°39' W 019°43'2 1.9 1025.5 19.4
2017-Dec-15 15:00N 36°40' W 019°41'0 0.0 1025.5 19.5
2017-Dec-15 14:00N 36°40' W 019°41'1 0.8 1025.9 19.4
2017-Dec-15 13:00N 36°41' W 019°40'1 0.8 1026.6 19.4
2017-Dec-15 12:00N 36°41' W 019°40'32 0.7 1027.5 19.4
2017-Dec-13 16:00N 37°04' W 019°11'1 0.8 1031.3 19.6
2017-Dec-13 15:00N 37°04' W 019°11'1 0.6 1031.4 19.6
2017-Dec-13 14:00N 37°05' W 019°11'1 0.6 1032.2 19.6
2017-Dec-13 13:00N 37°05' W 019°11'1 0.6 1032.9 19.6
2017-Dec-13 12:00N 37°06' W 019°11'1 0.6 1033.5 19.6
2017-Dec-13 11:00N 37°07' W 019°11'0 0.0 1033.5 19.6
2017-Dec-13 10:00N 37°07' W 019°11'1 0.6 1032.8 19.6
2017-Dec-13 09:00N 37°07' W 019°11'0 0.0 1032.6 19.6
2017-Dec-13 08:00N 37°07' W 019°11'1 0.8 1032.2 19.6
2017-Dec-13 07:00N 37°08' W 019°10'0 0.0 1031.9 19.6
2017-Dec-13 06:00N 37°08' W 019°10'1 0.8 1032.0 19.6
2017-Dec-13 05:00N 37°08' W 019°10'0 0.0 1031.7 19.6
2017-Dec-13 04:00N 37°08' W 019°10'1 0.8 1031.9 19.6
2017-Dec-13 03:00N 37°09' W 019°09'1 0.8 1031.8 19.6
2017-Dec-13 02:00N 37°10' W 019°08'1 0.8 1031.7 19.6
2017-Dec-13 01:00N 37°10' W 019°08'0 0.0 1031.8 19.6
2017-Dec-13 00:00N 37°10' W 019°08'1 0.6 1032.2 19.6
2017-Dec-12 23:00N 37°11' W 019°08'0 0.0 1032.0 19.6
2017-Dec-12 22:00N 37°11' W 019°08'1 0.8 1031.6 19.7
2017-Dec-12 21:00N 37°11' W 019°07'1 0.6 1031.4 19.6
2017-Dec-12 20:00N 37°12' W 019°07'1 0.6 1030.9 19.6
2017-Dec-12 19:00N 37°13' W 019°07'1 0.6 1030.2 19.7
2017-Dec-12 18:00N 37°13' W 019°07'1 0.6 1029.3 19.7
2017-Dec-12 17:00N 37°14' W 019°07'0 0.0 1028.9 19.7
2017-Dec-12 16:00N 37°14' W 019°07'1 0.6 1028.4 19.6
2017-Dec-12 15:00N 37°14' W 019°07'1 0.6 1028.1 19.7
2017-Dec-12 14:00N 37°15' W 019°07'1 0.8 1028.3 19.7
2017-Dec-12 13:00N 37°16' W 019°08'1 0.6 1028.7 19.7
2017-Dec-12 12:00N 37°16' W 019°08'0 0.5 1029.4 19.6
2017-Dec-12 11:00N 37°16' W 019°08'1 0.6 1029.1 19.7
2017-Dec-12 10:00N 37°17' W 019°08'0 0.5 1028.4 19.6
2017-Dec-12 09:00N 37°17' W 019°09'1 0.6 1027.8 19.6
2017-Dec-12 08:00N 37°16' W 019°09'1 0.8 1027.2 19.7
2017-Dec-12 07:00N 37°17' W 019°08'0 0.0 1026.5 19.7
2017-Dec-12 06:00N 37°17' W 019°08'1 0.8 1025.6 19.6
2017-Dec-12 05:00N 37°17' W 019°08'0 0.0 1025.8 19.6
2017-Dec-12 04:00N 37°17' W 019°08'1 0.6 1025.6 19.7
2017-Dec-12 03:00N 37°18' W 019°08'1 0.8 1025.3 19.7
2017-Dec-12 02:00N 37°19' W 019°07'1 0.6 1025.0 19.7
2017-Dec-12 01:00N 37°19' W 019°07'1 0.6 1024.5 19.7
2017-Dec-12 00:00N 37°20' W 019°07'0 0.0 1024.2 19.7
2017-Dec-11 23:00N 37°20' W 019°07'1 0.6 1023.7 19.7
2017-Dec-11 22:00N 37°20' W 019°07'1 1.3 1023.4 19.6
2017-Dec-11 21:00N 37°22' W 019°07'0 0.0 1023.0 19.7
2017-Dec-11 20:00N 37°22' W 019°07'0 0.0 1022.7 19.7
2017-Dec-11 19:00N 37°22' W 019°07'1 0.6 1022.0 19.7
2017-Dec-11 18:00N 37°22' W 019°07'1 0.6 1021.3 19.7
2017-Dec-11 17:00N 37°23' W 019°07'1 0.6 1020.5 19.7
2017-Dec-11 16:00N 37°23' W 019°07'1 0.6 1019.8 19.7
2017-Dec-11 15:00N 37°24' W 019°07'1 0.6 1019.4 19.7
2017-Dec-11 14:00N 37°25' W 019°07'0 0.0 1019.3 19.7
2017-Dec-11 13:00N 37°25' W 019°07'1 0.6 1019.6 19.7
2017-Dec-11 12:00N 37°25' W 019°07'0 0.0 1019.8 19.7
2017-Dec-11 11:00N 37°25' W 019°07'0 0.0 1019.6 19.7
2017-Dec-11 10:00N 37°25' W 019°07'0 0.0 1019.2 19.7
2017-Dec-11 09:00N 37°25' W 019°07'1 1.1 1018.6 19.7
2017-Dec-11 08:00N 37°26' W 019°05'0 0.0 1017.4 19.7
2017-Dec-11 07:00N 37°26' W 019°05'1 0.8 1017.0 19.8
2017-Dec-11 06:00N 37°26' W 019°05'1 0.6 1016.2 19.7
2017-Dec-11 05:00N 37°27' W 019°05'1 0.6 1015.7 19.7
2017-Dec-11 03:00N 37°28' W 019°04'1 0.8 1015.3 19.8
2017-Dec-11 02:00N 37°29' W 019°04'1 0.8 1015.7 19.8
2017-Dec-11 01:00N 37°29' W 019°04'1 1.3 1016.1 19.8
2017-Dec-11 00:00N 37°31' W 019°05'0 0.0 1015.3 19.8
2017-Dec-10 23:00N 37°31' W 019°05'1 0.8 1014.5 19.8
2017-Dec-10 22:00N 37°31' W 019°05'0 0.0 1015.1 19.8
2017-Dec-10 21:00N 37°31' W 019°05'1 1.1 1015.3 19.8
2017-Dec-10 20:00N 37°32' W 019°07'1 0.8 1016.6 19.8
2017-Dec-10 19:00N 37°32' W 019°07'1 0.8 1017.0 19.8
2017-Dec-10 18:00N 37°33' W 019°08'1 0.8 1017.6 19.8
2017-Dec-10 17:00N 37°34' W 019°08'0 0.0 1018.5 19.8
2017-Dec-10 16:00N 37°34' W 019°08'1 0.8 1019.2 19.9
2017-Dec-10 15:00N 37°34' W 019°09'0 0.5 1020.4 19.8
2017-Dec-10 14:00N 37°34' W 019°10'1 0.8 1022.3 19.9
2017-Dec-10 13:00N 37°35' W 019°10'0 0.0 1023.4 19.9
2017-Dec-10 12:00N 37°35' W 019°10'1 0.8 1024.2 19.8
2017-Dec-10 11:00N 37°35' W 019°11'0 0.5 1025.8 19.9
2017-Dec-10 10:00N 37°35' W 019°11'0 0.5 1025.3 19.9
2017-Dec-10 09:00N 37°35' W 019°12'0 0.5 1025.4 19.9
2017-Dec-10 08:00N 37°35' W 019°13'0 0.5 1026.0 19.9
2017-Dec-10 07:00N 37°35' W 019°13'0 0.0 1026.0 19.9
2017-Dec-10 06:00N 37°35' W 019°13'0 0.0 1025.8 19.9
2017-Dec-10 05:00N 37°35' W 019°13'0 0.0 1027.3 19.9
2017-Dec-10 04:00N 37°35' W 019°13'1 0.8 1027.9 19.9
2017-Dec-10 03:00N 37°36' W 019°14'0 0.0 1028.2 19.9
2017-Dec-10 02:00N 37°36' W 019°14'1 0.6 1029.0 19.9
2017-Dec-10 01:00N 37°37' W 019°14'0 0.5 1030.1 19.9
2017-Dec-10 00:00N 37°37' W 019°14'1 1.1 1030.5 19.9
2017-Dec-09 23:00N 37°37' W 019°16'0 0.5 1030.8 19.9
2017-Dec-09 22:00N 37°37' W 019°16'0 0.5 1030.9 19.9
2017-Dec-09 21:00N 37°37' W 019°17'0 0.5 1030.6 19.8
2017-Dec-09 20:00N 37°37' W 019°17'1 0.8 1030.3 19.8
2017-Dec-09 19:00N 37°38' W 019°18'0 0.5 1030.5 19.9
2017-Dec-09 18:00N 37°38' W 019°19'0 0.5 1030.1 19.9
2017-Dec-09 17:00N 37°38' W 019°19'1 0.8 1030.4 19.9
2017-Dec-09 16:00N 37°38' W 019°20'0 0.5 1030.3 19.9
2017-Dec-09 15:00N 37°38' W 019°20'0 0.5 1030.8 19.9
2017-Dec-09 14:00N 37°38' W 019°21'1 0.6 1031.4 19.9
2017-Dec-09 13:00N 37°39' W 019°21'1 0.8 1032.5 19.9
2017-Dec-09 12:00N 37°40' W 019°22'0 0.0 1033.0 19.9
2017-Dec-09 11:00N 37°40' W 019°22'1 0.8 1033.2 19.9
2017-Dec-09 10:00N 37°40' W 019°22'0 0.5 1032.5 19.9
2017-Dec-09 09:00N 37°40' W 019°23'1 0.8 1031.9 19.9
2017-Dec-09 08:00N 37°41' W 019°23'0 0.5 1031.3 19.9
2017-Dec-09 07:00N 37°41' W 019°24'0 0.5 1030.9 19.9
2017-Dec-09 06:00N 37°41' W 019°25'1 0.8 1030.8 19.9
2017-Dec-09 05:00N 37°41' W 019°25'0 0.5 1031.2 19.9
2017-Dec-09 04:00N 37°41' W 019°26'0 0.0 1031.5 19.9
2017-Dec-09 03:00N 37°41' W 019°26'1 0.8 1031.5 19.9
2017-Dec-09 02:00N 37°42' W 019°26'0 0.5 1031.9 20.0
2017-Dec-09 01:00N 37°42' W 019°27'0 0.5 1032.4 19.9
2017-Dec-09 00:00N 37°42' W 019°28'0 0.5 1032.7 19.9
2017-Dec-08 23:00N 37°42' W 019°28'0 0.0 1032.7 19.9
2017-Dec-08 22:00N 37°42' W 019°28'0 0.5 1032.9 19.9
2017-Dec-08 21:00N 37°42' W 019°29'0 0.5 1032.9 20.0
2017-Dec-08 20:00N 37°42' W 019°29'0 0.5 1032.1 19.9
2017-Dec-08 19:00N 37°42' W 019°30'0 0.0 1032.0 19.9
2017-Dec-08 18:00N 37°42' W 019°30'0 0.5 1031.6 19.9
2017-Dec-08 17:00N 37°42' W 019°31'1 0.6 1031.0 19.9
2017-Dec-08 16:00N 37°43' W 019°31'0 0.5 1030.7 20.0
2017-Dec-08 15:00N 37°43' W 019°31'1 0.8 1030.9 20.0
2017-Dec-08 14:00N 37°43' W 019°32'1 0.8 1031.4 19.9
2017-Dec-08 13:00N 37°44' W 019°32'0 0.5 1032.1 20.0
2017-Dec-08 12:00N 37°44' W 019°33'1 0.8 1032.8 19.9
2017-Dec-08 11:00N 37°44' W 019°34'0 0.5 1032.6 20.0
2017-Dec-08 10:00N 37°44' W 019°34'1 0.9 1031.9 20.0
2017-Dec-08 09:00N 37°44' W 019°35'0 0.5 1031.5 19.9
2017-Dec-08 08:00N 37°44' W 019°36'0 0.5 1031.1 19.9
2017-Dec-08 07:00N 37°44' W 019°37'0 0.5 1030.7 20.0
2017-Dec-08 06:00N 37°44' W 019°37'1 0.8 1030.2 20.0
2017-Dec-08 05:00N 37°44' W 019°38'0 0.0 1030.4 19.9
2017-Dec-08 04:00N 37°44' W 019°38'0 0.0 1030.5 20.0
2017-Dec-08 03:00N 37°44' W 019°38'1 0.8 1030.3 19.9
2017-Dec-08 02:00N 37°44' W 019°38'0 0.0 1030.2 19.9
2017-Dec-08 01:00N 37°44' W 019°38'1 0.8 1030.4 19.9
2017-Dec-08 00:00N 37°45' W 019°39'0 0.5 1030.3 20.0
2017-Dec-07 23:00N 37°45' W 019°40'0 0.5 1030.5 19.9
2017-Dec-07 22:00N 37°45' W 019°40'0 0.5 1030.4 20.0
2017-Dec-07 21:00N 37°45' W 019°41'0 0.5 1030.1 20.0
2017-Dec-07 20:00N 37°45' W 019°41'0 0.0 1029.7 20.0
2017-Dec-07 19:00N 37°45' W 019°41'   1029.3 20.0
Track history (hours):
 
Tides and Currents Weather Stations Pressure Air Temp Water Temp Dewpoint Dewpoint Depression Visibility Wind Speed Wind Dir Waves Ship Positions

Drifting buoy 62554

Last reported at 2017-Dec-17 19:00 UTC. Time now 2017-Dec-17 19:50 UTC.
Position N 36°27' W 020°18'.

Barometer 1031.4 mb
Water temperature 19.3 ° C

Date/timePositionNaut miles runAvg speedWind from/ knotsBaromVisibWave heightAir tempDewpointWater temp
2017-Dec-17 19:00N 36°27' W 020°18'0 0.5 1031.4 19.3
2017-Dec-17 18:00N 36°27' W 020°17'1 1.0 1031.0 19.3
2017-Dec-17 17:00N 36°27' W 020°16'0 0.5 1030.8 19.4
2017-Dec-17 16:00N 36°27' W 020°16'1 0.8 1030.8 19.3
2017-Dec-17 15:00N 36°28' W 020°15'0 0.5 1030.7 19.4
2017-Dec-17 14:00N 36°28' W 020°14'0 0.5 1031.2 19.4
2017-Dec-17 13:00N 36°28' W 020°14'0 0.5 1032.3 19.3
2017-Dec-17 12:00N 36°28' W 020°13'0 0.0 1033.0 19.4
2017-Dec-17 11:00N 36°28' W 020°13'0 0.5 1032.8 19.3
2017-Dec-17 10:00N 36°28' W 020°13'1 0.8 1032.2 19.4
2017-Dec-17 09:00N 36°27' W 020°12'1 1.0 1031.6 19.3
2017-Dec-17 08:00N 36°27' W 020°11'0 0.5 1031.1 19.4
2017-Dec-17 07:00N 36°27' W 020°10'1 1.0 1030.4 19.2
2017-Dec-17 06:00N 36°27' W 020°09'1 0.8 1029.9 19.2
2017-Dec-17 05:00N 36°28' W 020°08'1 1.0 1029.7 19.2
2017-Dec-17 04:00N 36°28' W 020°07'0 0.5 1030.0 19.2
2017-Dec-17 03:00N 36°28' W 020°07'0 0.5 1030.0 19.2
2017-Dec-17 02:00N 36°28' W 020°06'1 0.8 1030.3 19.2
2017-Dec-17 01:00N 36°28' W 020°05'0 0.5 1030.6 19.2
2017-Dec-17 00:00N 36°28' W 020°05'0 0.5 1030.6 19.2
2017-Dec-16 23:00N 36°28' W 020°04'0 0.5 1030.3 19.2
2017-Dec-16 22:00N 36°28' W 020°04'0 0.5 1030.3 19.2
2017-Dec-16 21:00N 36°28' W 020°03'1 1.0 1029.9 19.2
2017-Dec-16 20:00N 36°28' W 020°02'1 0.8 1029.5 19.1
2017-Dec-16 19:00N 36°29' W 020°01'0 0.5 1028.6 19.1
2017-Dec-16 18:00N 36°29' W 020°01'1 0.8 1028.0 19.1
2017-Dec-16 17:00N 36°29' W 020°00'1 0.8 1027.6 19.1
2017-Dec-16 16:00N 36°30' W 019°59'0 0.5 1027.1 19.1
2017-Dec-16 15:00N 36°30' W 019°59'1 0.8 1026.8 19.2
2017-Dec-16 14:00N 36°31' W 019°58'0 0.0 1027.1 19.2
2017-Dec-16 13:00N 36°31' W 019°58'0 0.5 1027.7 19.3
2017-Dec-16 12:00N 36°31' W 019°58'0 0.5 1028.1 19.4
2017-Dec-16 11:00N 36°31' W 019°57'0 0.5 1027.8 19.4
2017-Dec-16 10:00N 36°31' W 019°56'1 1.1 1027.3 19.3
2017-Dec-16 09:00N 36°31' W 019°55'0 0.5 1026.6 19.4
2017-Dec-16 08:00N 36°31' W 019°55'1 1.1 1026.1 19.2
2017-Dec-16 07:00N 36°32' W 019°53'1 1.0 1025.8 19.3
2017-Dec-16 06:00N 36°32' W 019°52'1 1.1 1025.3 19.3
2017-Dec-16 05:00N 36°32' W 019°51'1 0.8 1025.4 19.3
2017-Dec-16 04:00N 36°33' W 019°50'2 1.5 1025.7 19.2
2017-Dec-16 03:00N 36°34' W 019°49'1 0.8 1025.6 19.2
2017-Dec-16 02:00N 36°35' W 019°49'0 0.5 1025.7 19.4
2017-Dec-16 01:00N 36°35' W 019°48'1 0.6 1026.2 19.4
2017-Dec-16 00:00N 36°35' W 019°48'1 0.8 1026.6 19.4
2017-Dec-15 23:00N 36°36' W 019°47'1 0.8 1026.3 19.4
2017-Dec-15 22:00N 36°37' W 019°47'0 0.0 1026.4 19.5
2017-Dec-15 21:00N 36°37' W 019°47'1 0.8 1026.4 19.4
2017-Dec-15 20:00N 36°37' W 019°46'1 0.8 1026.2 19.4
2017-Dec-15 19:00N 36°38' W 019°46'1 1.1 1026.1 19.4
2017-Dec-15 18:00N 36°38' W 019°44'0 0.5 1025.8 19.4
2017-Dec-15 17:00N 36°38' W 019°44'1 1.1 1025.7 19.5
2017-Dec-15 16:00N 36°39' W 019°43'2 1.9 1025.5 19.4
2017-Dec-15 15:00N 36°40' W 019°41'0 0.0 1025.5 19.5
2017-Dec-15 14:00N 36°40' W 019°41'1 0.8 1025.9 19.4
2017-Dec-15 13:00N 36°41' W 019°40'1 0.8 1026.6 19.4
2017-Dec-15 12:00N 36°41' W 019°40'32 0.7 1027.5 19.4
2017-Dec-13 16:00N 37°04' W 019°11'1 0.8 1031.3 19.6
2017-Dec-13 15:00N 37°04' W 019°11'1 0.6 1031.4 19.6
2017-Dec-13 14:00N 37°05' W 019°11'1 0.6 1032.2 19.6
2017-Dec-13 13:00N 37°05' W 019°11'1 0.6 1032.9 19.6
2017-Dec-13 12:00N 37°06' W 019°11'1 0.6 1033.5 19.6
2017-Dec-13 11:00N 37°07' W 019°11'0 0.0 1033.5 19.6
2017-Dec-13 10:00N 37°07' W 019°11'1 0.6 1032.8 19.6
2017-Dec-13 09:00N 37°07' W 019°11'0 0.0 1032.6 19.6
2017-Dec-13 08:00N 37°07' W 019°11'1 0.8 1032.2 19.6
2017-Dec-13 07:00N 37°08' W 019°10'0 0.0 1031.9 19.6
2017-Dec-13 06:00N 37°08' W 019°10'1 0.8 1032.0 19.6
2017-Dec-13 05:00N 37°08' W 019°10'0 0.0 1031.7 19.6
2017-Dec-13 04:00N 37°08' W 019°10'1 0.8 1031.9 19.6
2017-Dec-13 03:00N 37°09' W 019°09'1 0.8 1031.8 19.6
2017-Dec-13 02:00N 37°10' W 019°08'1 0.8 1031.7 19.6
2017-Dec-13 01:00N 37°10' W 019°08'0 0.0 1031.8 19.6
2017-Dec-13 00:00N 37°10' W 019°08'1 0.6 1032.2 19.6
2017-Dec-12 23:00N 37°11' W 019°08'0 0.0 1032.0 19.6
2017-Dec-12 22:00N 37°11' W 019°08'1 0.8 1031.6 19.7
2017-Dec-12 21:00N 37°11' W 019°07'1 0.6 1031.4 19.6
2017-Dec-12 20:00N 37°12' W 019°07'1 0.6 1030.9 19.6
2017-Dec-12 19:00N 37°13' W 019°07'1 0.6 1030.2 19.7
2017-Dec-12 18:00N 37°13' W 019°07'1 0.6 1029.3 19.7
2017-Dec-12 17:00N 37°14' W 019°07'0 0.0 1028.9 19.7
2017-Dec-12 16:00N 37°14' W 019°07'1 0.6 1028.4 19.6
2017-Dec-12 15:00N 37°14' W 019°07'1 0.6 1028.1 19.7
2017-Dec-12 14:00N 37°15' W 019°07'1 0.8 1028.3 19.7
2017-Dec-12 13:00N 37°16' W 019°08'1 0.6 1028.7 19.7
2017-Dec-12 12:00N 37°16' W 019°08'0 0.5 1029.4 19.6
2017-Dec-12 11:00N 37°16' W 019°08'1 0.6 1029.1 19.7
2017-Dec-12 10:00N 37°17' W 019°08'0 0.5 1028.4 19.6
2017-Dec-12 09:00N 37°17' W 019°09'1 0.6 1027.8 19.6
2017-Dec-12 08:00N 37°16' W 019°09'1 0.8 1027.2 19.7
2017-Dec-12 07:00N 37°17' W 019°08'0 0.0 1026.5 19.7
2017-Dec-12 06:00N 37°17' W 019°08'1 0.8 1025.6 19.6
2017-Dec-12 05:00N 37°17' W 019°08'0 0.0 1025.8 19.6
2017-Dec-12 04:00N 37°17' W 019°08'1 0.6 1025.6 19.7
2017-Dec-12 03:00N 37°18' W 019°08'1 0.8 1025.3 19.7
2017-Dec-12 02:00N 37°19' W 019°07'1 0.6 1025.0 19.7
2017-Dec-12 01:00N 37°19' W 019°07'1 0.6 1024.5 19.7
2017-Dec-12 00:00N 37°20' W 019°07'0 0.0 1024.2 19.7
2017-Dec-11 23:00N 37°20' W 019°07'1 0.6 1023.7 19.7
2017-Dec-11 22:00N 37°20' W 019°07'1 1.3 1023.4 19.6
2017-Dec-11 21:00N 37°22' W 019°07'0 0.0 1023.0 19.7
2017-Dec-11 20:00N 37°22' W 019°07'0 0.0 1022.7 19.7
2017-Dec-11 19:00N 37°22' W 019°07'1 0.6 1022.0 19.7
2017-Dec-11 18:00N 37°22' W 019°07'1 0.6 1021.3 19.7
2017-Dec-11 17:00N 37°23' W 019°07'1 0.6 1020.5 19.7
2017-Dec-11 16:00N 37°23' W 019°07'1 0.6 1019.8 19.7
2017-Dec-11 15:00N 37°24' W 019°07'1 0.6 1019.4 19.7
2017-Dec-11 14:00N 37°25' W 019°07'0 0.0 1019.3 19.7
2017-Dec-11 13:00N 37°25' W 019°07'1 0.6 1019.6 19.7
2017-Dec-11 12:00N 37°25' W 019°07'0 0.0 1019.8 19.7
2017-Dec-11 11:00N 37°25' W 019°07'0 0.0 1019.6 19.7
2017-Dec-11 10:00N 37°25' W 019°07'0 0.0 1019.2 19.7
2017-Dec-11 09:00N 37°25' W 019°07'1 1.1 1018.6 19.7
2017-Dec-11 08:00N 37°26' W 019°05'0 0.0 1017.4 19.7
2017-Dec-11 07:00N 37°26' W 019°05'1 0.8 1017.0 19.8
2017-Dec-11 06:00N 37°26' W 019°05'1 0.6 1016.2 19.7
2017-Dec-11 05:00N 37°27' W 019°05'1 0.6 1015.7 19.7
2017-Dec-11 03:00N 37°28' W 019°04'1 0.8 1015.3 19.8
2017-Dec-11 02:00N 37°29' W 019°04'1 0.8 1015.7 19.8
2017-Dec-11 01:00N 37°29' W 019°04'1 1.3 1016.1 19.8
2017-Dec-11 00:00N 37°31' W 019°05'0 0.0 1015.3 19.8
2017-Dec-10 23:00N 37°31' W 019°05'1 0.8 1014.5 19.8
2017-Dec-10 22:00N 37°31' W 019°05'0 0.0 1015.1 19.8
2017-Dec-10 21:00N 37°31' W 019°05'1 1.1 1015.3 19.8
2017-Dec-10 20:00N 37°32' W 019°07'1 0.8 1016.6 19.8
2017-Dec-10 19:00N 37°32' W 019°07'1 0.8 1017.0 19.8
2017-Dec-10 18:00N 37°33' W 019°08'1 0.8 1017.6 19.8
2017-Dec-10 17:00N 37°34' W 019°08'0 0.0 1018.5 19.8
2017-Dec-10 16:00N 37°34' W 019°08'1 0.8 1019.2 19.9
2017-Dec-10 15:00N 37°34' W 019°09'0 0.5 1020.4 19.8
2017-Dec-10 14:00N 37°34' W 019°10'1 0.8 1022.3 19.9
2017-Dec-10 13:00N 37°35' W 019°10'0 0.0 1023.4 19.9
2017-Dec-10 12:00N 37°35' W 019°10'1 0.8 1024.2 19.8
2017-Dec-10 11:00N 37°35' W 019°11'0 0.5 1025.8 19.9
2017-Dec-10 10:00N 37°35' W 019°11'0 0.5 1025.3 19.9
2017-Dec-10 09:00N 37°35' W 019°12'0 0.5 1025.4 19.9
2017-Dec-10 08:00N 37°35' W 019°13'0 0.5 1026.0 19.9
2017-Dec-10 07:00N 37°35' W 019°13'0 0.0 1026.0 19.9
2017-Dec-10 06:00N 37°35' W 019°13'0 0.0 1025.8 19.9
2017-Dec-10 05:00N 37°35' W 019°13'0 0.0 1027.3 19.9
2017-Dec-10 04:00N 37°35' W 019°13'1 0.8 1027.9 19.9
2017-Dec-10 03:00N 37°36' W 019°14'0 0.0 1028.2 19.9
2017-Dec-10 02:00N 37°36' W 019°14'1 0.6 1029.0 19.9
2017-Dec-10 01:00N 37°37' W 019°14'0 0.5 1030.1 19.9
2017-Dec-10 00:00N 37°37' W 019°14'1 1.1 1030.5 19.9
2017-Dec-09 23:00N 37°37' W 019°16'0 0.5 1030.8 19.9
2017-Dec-09 22:00N 37°37' W 019°16'0 0.5 1030.9 19.9
2017-Dec-09 21:00N 37°37' W 019°17'0 0.5 1030.6 19.8
2017-Dec-09 20:00N 37°37' W 019°17'1 0.8 1030.3 19.8
2017-Dec-09 19:00N 37°38' W 019°18'0 0.5 1030.5 19.9
2017-Dec-09 18:00N 37°38' W 019°19'0 0.5 1030.1 19.9
2017-Dec-09 17:00N 37°38' W 019°19'1 0.8 1030.4 19.9
2017-Dec-09 16:00N 37°38' W 019°20'0 0.5 1030.3 19.9
2017-Dec-09 15:00N 37°38' W 019°20'0 0.5 1030.8 19.9
2017-Dec-09 14:00N 37°38' W 019°21'1 0.6 1031.4 19.9
2017-Dec-09 13:00N 37°39' W 019°21'1 0.8 1032.5 19.9
2017-Dec-09 12:00N 37°40' W 019°22'0 0.0 1033.0 19.9
2017-Dec-09 11:00N 37°40' W 019°22'1 0.8 1033.2 19.9
2017-Dec-09 10:00N 37°40' W 019°22'0 0.5 1032.5 19.9
2017-Dec-09 09:00N 37°40' W 019°23'1 0.8 1031.9 19.9
2017-Dec-09 08:00N 37°41' W 019°23'0 0.5 1031.3 19.9
2017-Dec-09 07:00N 37°41' W 019°24'0 0.5 1030.9 19.9
2017-Dec-09 06:00N 37°41' W 019°25'1 0.8 1030.8 19.9
2017-Dec-09 05:00N 37°41' W 019°25'0 0.5 1031.2 19.9
2017-Dec-09 04:00N 37°41' W 019°26'0 0.0 1031.5 19.9
2017-Dec-09 03:00N 37°41' W 019°26'1 0.8 1031.5 19.9
2017-Dec-09 02:00N 37°42' W 019°26'0 0.5 1031.9 20.0
2017-Dec-09 01:00N 37°42' W 019°27'0 0.5 1032.4 19.9
2017-Dec-09 00:00N 37°42' W 019°28'0 0.5 1032.7 19.9
2017-Dec-08 23:00N 37°42' W 019°28'0 0.0 1032.7 19.9
2017-Dec-08 22:00N 37°42' W 019°28'0 0.5 1032.9 19.9
2017-Dec-08 21:00N 37°42' W 019°29'0 0.5 1032.9 20.0
2017-Dec-08 20:00N 37°42' W 019°29'0 0.5 1032.1 19.9
2017-Dec-08 19:00N 37°42' W 019°30'0 0.0 1032.0 19.9
2017-Dec-08 18:00N 37°42' W 019°30'0 0.5 1031.6 19.9
2017-Dec-08 17:00N 37°42' W 019°31'1 0.6 1031.0 19.9
2017-Dec-08 16:00N 37°43' W 019°31'0 0.5 1030.7 20.0
2017-Dec-08 15:00N 37°43' W 019°31'1 0.8 1030.9 20.0
2017-Dec-08 14:00N 37°43' W 019°32'1 0.8 1031.4 19.9
2017-Dec-08 13:00N 37°44' W 019°32'0 0.5 1032.1 20.0
2017-Dec-08 12:00N 37°44' W 019°33'1 0.8 1032.8 19.9
2017-Dec-08 11:00N 37°44' W 019°34'0 0.5 1032.6 20.0
2017-Dec-08 10:00N 37°44' W 019°34'1 0.9 1031.9 20.0
2017-Dec-08 09:00N 37°44' W 019°35'0 0.5 1031.5 19.9
2017-Dec-08 08:00N 37°44' W 019°36'0 0.5 1031.1 19.9
2017-Dec-08 07:00N 37°44' W 019°37'0 0.5 1030.7 20.0
2017-Dec-08 06:00N 37°44' W 019°37'1 0.8 1030.2 20.0
2017-Dec-08 05:00N 37°44' W 019°38'0 0.0 1030.4 19.9
2017-Dec-08 04:00N 37°44' W 019°38'0 0.0 1030.5 20.0
2017-Dec-08 03:00N 37°44' W 019°38'1 0.8 1030.3 19.9
2017-Dec-08 02:00N 37°44' W 019°38'0 0.0 1030.2 19.9
2017-Dec-08 01:00N 37°44' W 019°38'1 0.8 1030.4 19.9
2017-Dec-08 00:00N 37°45' W 019°39'0 0.5 1030.3 20.0
2017-Dec-07 23:00N 37°45' W 019°40'0 0.5 1030.5 19.9
2017-Dec-07 22:00N 37°45' W 019°40'0 0.5 1030.4 20.0
2017-Dec-07 21:00N 37°45' W 019°41'0 0.5 1030.1 20.0
2017-Dec-07 20:00N 37°45' W 019°41'0 0.0 1029.7 20.0
2017-Dec-07 19:00N 37°45' W 019°41'   1029.3 20.0

Dump ship's entire track history